Midland, TX

9:26 PM CDT on March 29, 2015 (GMT -0500)
Midland International | | Change Station
CLOSE
Current Station
Airport
Location: Midland,
Elevation: 2861 ft
Nearby Weather Stations

Elev 2861 ft 31.95 °N, 102.21 °W | Updated 33 minutes ago

Clear
Clear
74 °F
Feels Like 74 °F
N
18
Wind Variable Wind from NE

Today
High -- | Low -- °F
--% Chance of Precip.
Yesterday
High -- | Low -- °F
Precip. -- in
7:41 AM 8:06 PM
Waxing Gibbous, 76% visible
Pressure 30.01 in
Visibility 10.0 miles
Clouds Clear
Dew Point 38 °F
Humidity 27%
Rainfall 0.00 in
Snow Depth Not available.
UV 0 out of 12
Pollen 11.00 out of 12
Air Quality Not available.
Flu Activity Not available.
METAR KMAF 300153Z 05016KT 10SM CLR 23/03 A3011 RMK AO2 PK WND 05027/0143 SLP161 T02330033

More Conditions Fewer Conditions

Pressure 30.01 in
Visibility 10.0 miles
Clouds Clear
Dew Point 38 °F
Humidity 27%
Rainfall 0.00 in
Snow Depth Not available.
UV 0 out of 12
Pollen 11.00 out of 12
Air Quality Not available.
Flu Activity Not available.
METAR KMAF 300153Z 05016KT 10SM CLR 23/03 A3011 RMK AO2 PK WND 05027/0143 SLP161 T02330033

More Conditions Fewer Conditions

10-Day Weather Forecast

Almanac

Astronomy

Mar. 29, 2015 Rise Set
Actual Time
Civil Twilight
Nautical Twilight
Astronomical Twilight
Moon
Length of Visible Light
Length of Day
Tomorrow will be .
, % of the Moon is Illuminated

Today's Extremes

State Highs State Lows

Community

WunderPhotos

Upload Photos

1,809,414 photos uploaded!

WunderBlogs® & News

Nearby

Air Quality

  Air Quality AQ Index Pollutant
Not available.

Snow Depth

Station Depth Elevation

Earthquake Activity

City Distance Mag. Time & Date
Minimum magnitude displayed is 2.5.

Coastal Water Temperatures

Place Temperature

Stations

Nearby Weather Stations

Station Location Temp. Windchill Dew Point Humidity Wind Precip. Elev Updated Type